createdAt,value
2023-05-24T00:02:14.160Z,8.18
2023-05-24T00:05:18.796Z,3.75
2023-05-24T00:08:21.802Z,8.27
2023-05-24T00:11:24.745Z,4.10
2023-05-24T00:14:27.667Z,5.60
2023-05-24T00:17:32.256Z,5.07
2023-05-24T00:20:35.258Z,4.75
2023-05-24T00:23:38.680Z,4.25
2023-05-24T00:26:41.628Z,4.82
2023-05-24T00:29:44.596Z,7.63
2023-05-24T00:32:48.857Z,5.93
2023-05-24T00:35:56.215Z,7.38
2023-05-24T00:38:59.169Z,6.38
2023-05-24T00:42:02.207Z,7.45
2023-05-24T00:45:06.369Z,3.70
2023-05-24T00:48:11.319Z,5.18
2023-05-24T00:51:14.837Z,4.95
2023-05-24T00:54:17.759Z,7.32
2023-05-24T00:57:21.673Z,6.00
2023-05-24T01:00:25.593Z,4.70
2023-05-24T01:03:30.795Z,4.70
2023-05-24T01:06:44.856Z,5.38
2023-05-24T01:10:00.734Z,4.70
2023-05-24T01:13:09.913Z,6.18
2023-05-24T01:16:18.794Z,4.63
2023-05-24T01:19:43.229Z,3.38
2023-05-24T01:23:18.988Z,4.47
2023-05-24T01:26:38.440Z,6.45
2023-05-24T01:29:43.955Z,4.38
2023-05-24T01:32:47.178Z,4.82
2023-05-24T01:35:50.191Z,5.93
2023-05-24T01:38:53.616Z,4.88
2023-05-24T01:42:06.275Z,3.85
2023-05-24T01:45:18.746Z,6.13
2023-05-24T01:48:32.852Z,4.47
2023-05-24T01:51:41.186Z,4.07
2023-05-24T01:54:50.438Z,5.50
2023-05-24T01:57:55.576Z,5.43
2023-05-24T02:01:00.645Z,6.38
2023-05-24T02:04:04.077Z,4.47
2023-05-24T02:07:07.024Z,3.38
2023-05-24T02:10:10.851Z,4.20
2023-05-24T02:13:13.779Z,5.03
2023-05-24T02:16:18.676Z,6.38
2023-05-24T02:19:22.088Z,4.15
2023-05-24T02:22:24.937Z,4.50
2023-05-24T02:25:28.600Z,6.35
2023-05-24T02:28:32.394Z,3.88
2023-05-24T02:31:36.914Z,3.65
2023-05-24T02:34:39.928Z,3.47
2023-05-24T02:37:42.801Z,5.20
2023-05-24T02:40:45.753Z,4.75
2023-05-24T02:43:49.399Z,3.58
2023-05-24T02:46:53.824Z,4.45
2023-05-24T02:49:57.054Z,4.75
2023-05-24T02:53:00.064Z,3.40
2023-05-24T02:56:03.153Z,3.28
2023-05-24T02:59:08.183Z,4.45
2023-05-24T03:02:14.891Z,4.85
2023-05-24T03:05:18.301Z,5.13
2023-05-24T03:08:21.500Z,3.60
2023-05-24T03:11:24.641Z,3.88
2023-05-24T03:14:27.544Z,3.28
2023-05-24T03:17:31.816Z,4.38
2023-05-24T03:20:34.950Z,3.55
2023-05-24T03:23:37.942Z,4.78
2023-05-24T03:26:41.006Z,2.92
2023-05-24T03:29:44.966Z,6.32
2023-05-24T03:32:50.254Z,4.82
2023-05-24T03:35:53.190Z,4.57
2023-05-24T03:38:58.320Z,4.78
2023-05-24T03:42:02.041Z,3.53
2023-05-24T03:45:06.302Z,3.75
2023-05-24T03:48:10.537Z,3.72
2023-05-24T03:51:13.523Z,3.63
2023-05-24T03:54:17.904Z,3.22
2023-05-24T03:57:20.911Z,3.67
2023-05-24T04:00:23.951Z,2.58
2023-05-24T04:03:28.508Z,3.40
2023-05-24T04:06:32.089Z,3.65
2023-05-24T04:09:35.295Z,3.55
2023-05-24T04:12:39.698Z,3.20
2023-05-24T04:15:43.440Z,4.75
2023-05-24T04:18:48.316Z,5.20
2023-05-24T04:21:51.341Z,3.60
2023-05-24T04:24:54.267Z,4.85
2023-05-24T04:27:57.251Z,4.22
2023-05-24T04:31:00.614Z,5.07
2023-05-24T04:34:07.438Z,2.42
2023-05-24T04:37:10.839Z,3.65
2023-05-24T04:40:14.144Z,2.28
2023-05-24T04:43:16.992Z,3.22
2023-05-24T04:46:20.011Z,4.75
2023-05-24T04:49:24.443Z,2.03
2023-05-24T04:52:27.747Z,2.20
2023-05-24T04:55:31.016Z,4.07
2023-05-24T04:58:35.936Z,2.80
2023-05-24T05:01:40.446Z,3.90
2023-05-24T05:04:44.716Z,2.25
2023-05-24T05:07:47.892Z,2.85
2023-05-24T05:10:50.764Z,2.72
2023-05-24T05:13:54.164Z,4.60
2023-05-24T05:16:57.191Z,2.75
2023-05-24T05:20:01.676Z,3.95
2023-05-24T05:23:04.576Z,2.40
2023-05-24T05:26:07.840Z,2.88
2023-05-24T05:29:10.878Z,4.28
2023-05-24T05:32:13.828Z,3.53
2023-05-24T05:35:18.091Z,3.58
2023-05-24T05:38:21.000Z,3.92
2023-05-24T05:41:23.908Z,3.75
2023-05-24T05:44:26.789Z,4.43
2023-05-24T05:47:29.728Z,4.18
2023-05-24T05:50:34.158Z,2.95
2023-05-24T05:53:37.119Z,3.47
2023-05-24T05:56:45.189Z,2.83
2023-05-24T05:59:48.076Z,2.70
2023-05-24T06:02:51.060Z,5.50
2023-05-24T06:05:55.319Z,4.25
2023-05-24T06:08:58.163Z,2.72
2023-05-24T06:12:01.261Z,4.50
2023-05-24T06:15:06.484Z,5.05
2023-05-24T06:18:09.352Z,7.25
2023-05-24T06:21:13.782Z,4.63
2023-05-24T06:24:20.421Z,7.20
2023-05-24T06:27:23.701Z,11.02
2023-05-24T06:30:27.106Z,9.13
2023-05-24T06:33:30.070Z,11.55
2023-05-24T06:36:35.982Z,11.77
2023-05-24T06:39:38.921Z,8.68
2023-05-24T06:42:41.748Z,8.50
2023-05-24T06:45:44.865Z,11.45
2023-05-24T06:48:47.846Z,13.15
2023-05-24T06:51:52.877Z,15.55
2023-05-24T06:54:55.727Z,10.20
2023-05-24T06:57:58.563Z,11.65
2023-05-24T07:01:01.500Z,12.68
2023-05-24T07:04:04.561Z,9.38
2023-05-24T07:07:09.180Z,12.32
2023-05-24T07:10:12.977Z,10.15
2023-05-24T07:13:15.957Z,10.07
2023-05-24T07:16:19.177Z,7.32
2023-05-24T07:19:22.517Z,9.65
2023-05-24T07:22:28.664Z,7.93
2023-05-24T07:25:32.721Z,8.98
2023-05-24T07:28:37.778Z,5.32
2023-05-24T07:31:40.664Z,6.93
2023-05-24T07:34:43.547Z,9.10
2023-05-24T07:37:47.893Z,7.78
2023-05-24T07:40:51.018Z,6.65
2023-05-24T07:43:54.631Z,6.88
2023-05-24T07:46:57.664Z,5.68
2023-05-24T07:50:00.552Z,8.23
2023-05-24T07:53:05.293Z,13.27
2023-05-24T07:56:09.898Z,5.60
2023-05-24T07:59:12.866Z,12.80
2023-05-24T08:02:16.887Z,10.05
2023-05-24T08:05:19.813Z,6.15
2023-05-24T08:08:24.437Z,4.45
2023-05-24T08:11:27.431Z,7.60
2023-05-24T08:14:30.282Z,7.15
2023-05-24T08:17:33.213Z,7.93
2023-05-24T08:20:36.641Z,6.55
2023-05-24T08:23:41.525Z,9.68
2023-05-24T08:26:45.217Z,7.68
2023-05-24T08:29:48.073Z,9.60
2023-05-24T08:32:51.128Z,5.47
2023-05-24T08:35:54.186Z,7.03
2023-05-24T08:38:59.647Z,5.43
2023-05-24T08:45:12.084Z,5.88
2023-05-24T08:48:16.147Z,4.13
2023-05-24T08:51:19.371Z,7.70
2023-05-24T08:54:23.992Z,8.23
2023-05-24T08:57:27.996Z,6.18
2023-05-24T09:00:30.963Z,9.20
2023-05-24T09:03:35.144Z,6.65
2023-05-24T09:06:38.126Z,9.07
2023-05-24T09:09:45.353Z,6.72
2023-05-24T09:12:52.800Z,9.93
2023-05-24T09:15:55.694Z,5.18
2023-05-24T09:18:58.591Z,7.90
2023-05-24T09:22:02.082Z,13.73
2023-05-24T09:25:07.813Z,8.73
2023-05-24T09:28:10.643Z,5.03
2023-05-24T09:31:13.811Z,10.30
2023-05-24T09:34:17.786Z,10.57
2023-05-24T09:37:26.894Z,8.23
2023-05-24T09:40:33.608Z,10.35
2023-05-24T09:43:48.114Z,8.93
2023-05-24T09:46:51.539Z,9.50
2023-05-24T09:49:54.468Z,7.85
2023-05-24T09:52:57.406Z,7.47
2023-05-24T09:56:02.694Z,7.57
2023-05-24T09:59:09.941Z,11.18
2023-05-24T10:02:13.545Z,11.07
2023-05-24T10:05:16.741Z,10.63
2023-05-24T10:08:20.462Z,10.32
2023-05-24T10:11:25.177Z,10.57
2023-05-24T10:14:30.650Z,9.88
2023-05-24T10:17:33.571Z,6.72
2023-05-24T10:20:36.762Z,11.23
2023-05-24T10:23:43.874Z,12.65
2023-05-24T10:26:50.120Z,8.25
2023-05-24T10:30:12.970Z,9.25
2023-05-24T10:33:18.431Z,12.00
2023-05-24T10:36:21.396Z,9.70
2023-05-24T10:39:24.291Z,10.02
2023-05-24T10:42:28.661Z,9.95
2023-05-24T10:45:35.611Z,8.30
2023-05-24T10:48:40.539Z,9.82
2023-05-24T10:51:43.778Z,13.43
2023-05-24T10:55:08.036Z,8.88
2023-05-24T10:58:13.177Z,11.80
2023-05-24T11:01:26.615Z,9.60
2023-05-24T11:04:32.600Z,9.32
2023-05-24T11:07:42.764Z,11.38
2023-05-24T11:10:47.597Z,9.63
2023-05-24T11:13:57.322Z,13.02
2023-05-24T11:17:01.584Z,9.23
2023-05-24T11:20:05.364Z,13.00
2023-05-24T11:23:10.351Z,13.02
2023-05-24T11:26:13.305Z,11.55
2023-05-24T11:29:20.892Z,10.30
2023-05-24T11:32:25.152Z,8.70
2023-05-24T11:35:29.836Z,13.48
2023-05-24T11:38:32.983Z,13.00
2023-05-24T11:41:39.802Z,10.25
2023-05-24T11:44:44.598Z,10.75
2023-05-24T11:47:49.509Z,7.28
2023-05-24T11:50:52.531Z,8.45
2023-05-24T11:53:56.603Z,10.02
2023-05-24T11:56:59.552Z,8.88
2023-05-24T12:00:04.922Z,8.55
2023-05-24T12:03:10.036Z,15.55
2023-05-24T12:06:13.223Z,6.47
2023-05-24T12:09:18.060Z,9.35
2023-05-24T12:12:30.452Z,8.90
2023-05-24T12:15:38.332Z,7.47
2023-05-24T12:18:48.340Z,5.18
2023-05-24T12:21:54.079Z,10.57
2023-05-24T12:24:58.093Z,7.93
2023-05-24T12:28:00.994Z,10.93
2023-05-24T12:31:06.624Z,8.13
2023-05-24T12:34:12.785Z,16.33
2023-05-24T12:37:16.510Z,16.27
2023-05-24T12:40:21.301Z,20.60
2023-05-24T12:43:24.364Z,25.48
2023-05-24T12:46:28.568Z,18.48
2023-05-24T12:49:32.605Z,15.65
2023-05-24T12:52:35.574Z,20.23
2023-05-24T12:55:38.416Z,12.57
2023-05-24T12:58:41.416Z,21.63
2023-05-24T13:01:50.559Z,14.73
2023-05-24T13:04:53.488Z,10.45
2023-05-24T13:07:57.436Z,17.52
2023-05-24T13:11:00.278Z,21.80
2023-05-24T13:14:04.086Z,11.25
2023-05-24T13:17:09.032Z,14.57
2023-05-24T13:20:12.584Z,10.60
2023-05-24T13:23:15.526Z,12.60
2023-05-24T13:26:18.750Z,12.75
2023-05-24T13:29:36.543Z,14.48
2023-05-24T13:32:46.084Z,11.20
2023-05-24T13:35:49.721Z,8.10
2023-05-24T13:38:59.508Z,11.60
2023-05-24T13:42:15.701Z,11.63
2023-05-24T13:45:18.744Z,10.80
2023-05-24T13:48:23.042Z,8.05
2023-05-24T13:51:27.072Z,8.30
2023-05-24T13:54:29.987Z,10.40
2023-05-24T13:57:49.519Z,9.50
2023-05-24T14:00:53.147Z,7.07
2023-05-24T14:03:57.759Z,6.80
2023-05-24T14:07:00.624Z,12.25
2023-05-24T14:10:03.618Z,7.22
2023-05-24T14:16:13.570Z,8.43
2023-05-24T14:19:17.866Z,9.90
2023-05-24T14:22:22.751Z,12.23
2023-05-24T14:25:25.598Z,8.98
2023-05-24T14:28:28.428Z,9.32
2023-05-24T14:31:31.557Z,4.88
2023-05-24T14:34:35.841Z,8.95
2023-05-24T14:37:38.743Z,10.52
2023-05-24T14:40:42.385Z,6.57
2023-05-24T14:43:45.349Z,6.97
2023-05-24T14:46:48.964Z,5.35
2023-05-24T14:49:53.171Z,6.65
2023-05-24T14:52:56.184Z,7.32
2023-05-24T14:55:59.184Z,7.03
2023-05-24T14:59:02.287Z,8.30
2023-05-24T15:02:05.297Z,7.82
2023-05-24T15:05:10.093Z,5.68
2023-05-24T15:08:13.758Z,5.10
2023-05-24T15:11:17.587Z,6.93
2023-05-24T15:14:20.759Z,7.15
2023-05-24T15:17:23.778Z,11.95
2023-05-24T15:20:28.146Z,6.03
2023-05-24T15:23:31.273Z,13.88
2023-05-24T15:26:34.431Z,11.55
2023-05-24T15:29:37.462Z,10.55
2023-05-24T15:32:40.588Z,13.90
2023-05-24T15:35:44.897Z,10.45
2023-05-24T15:38:47.824Z,9.73
2023-05-24T15:41:50.843Z,9.98
2023-05-24T15:44:53.717Z,12.93
2023-05-24T15:47:56.943Z,10.82
2023-05-24T15:51:39.807Z,8.90
2023-05-24T15:54:24.168Z,16.75
2023-05-24T15:57:27.091Z,13.52
2023-05-24T16:00:30.157Z,7.15
2023-05-24T16:03:33.222Z,16.52
2023-05-24T16:06:38.189Z,8.75
2023-05-24T16:09:41.929Z,11.18
2023-05-24T16:12:46.010Z,10.85
2023-05-24T16:15:51.564Z,11.98
2023-05-24T16:18:54.503Z,12.40
2023-05-24T16:21:58.775Z,8.35
2023-05-24T16:25:01.676Z,8.73
2023-05-24T16:28:04.546Z,10.30
2023-05-24T16:31:07.438Z,10.32
2023-05-24T16:34:10.327Z,15.23
2023-05-24T16:37:14.566Z,6.85
2023-05-24T16:40:17.730Z,8.55
2023-05-24T16:43:21.584Z,6.63
2023-05-24T16:46:24.590Z,12.00
2023-05-24T16:49:27.473Z,9.45
2023-05-24T16:52:31.749Z,10.20
2023-05-24T16:55:34.699Z,5.78
2023-05-24T16:58:37.768Z,8.23
2023-05-24T17:01:40.717Z,11.82
2023-05-24T17:04:43.666Z,7.47
2023-05-24T17:07:47.932Z,15.63
2023-05-24T17:10:55.823Z,6.32
2023-05-24T17:13:58.697Z,9.98
2023-05-24T17:17:01.574Z,7.15
2023-05-24T17:20:05.380Z,13.88
2023-05-24T17:23:09.665Z,8.27
2023-05-24T17:29:17.690Z,11.38
2023-05-24T17:32:20.519Z,9.48
2023-05-24T17:35:23.402Z,4.65
2023-05-24T17:38:28.762Z,10.60
2023-05-24T17:41:32.444Z,11.40
2023-05-24T17:44:35.485Z,7.03
2023-05-24T17:47:38.389Z,7.20
2023-05-24T17:50:41.414Z,6.07
2023-05-24T17:53:45.657Z,8.68
2023-05-24T17:56:48.552Z,6.63
2023-05-24T17:59:51.466Z,5.53
2023-05-24T18:02:54.434Z,10.68
2023-05-24T18:05:57.387Z,9.35
2023-05-24T18:09:01.628Z,7.88
2023-05-24T18:12:05.663Z,8.57
2023-05-24T18:15:09.229Z,11.02
2023-05-24T18:18:13.578Z,5.68
2023-05-24T18:21:16.544Z,9.10
2023-05-24T18:24:21.053Z,4.22
2023-05-24T18:27:23.902Z,4.38
2023-05-24T18:30:26.871Z,7.97
2023-05-24T18:33:29.770Z,6.20
2023-05-24T18:36:33.103Z,7.88
2023-05-24T18:39:37.668Z,7.10
2023-05-24T18:42:40.499Z,5.45
2023-05-24T18:45:43.552Z,6.18
2023-05-24T18:48:46.583Z,5.57
2023-05-24T18:51:49.441Z,5.55
2023-05-24T18:54:54.448Z,6.45
2023-05-24T18:57:57.296Z,7.30
2023-05-24T19:01:00.222Z,4.95
2023-05-24T19:04:03.149Z,6.25
2023-05-24T19:07:06.956Z,7.57
2023-05-24T19:10:11.976Z,7.13
2023-05-24T19:13:15.684Z,6.88
2023-05-24T19:16:18.729Z,5.15
2023-05-24T19:19:21.651Z,5.50
2023-05-24T19:22:26.156Z,4.35
2023-05-24T19:25:31.220Z,5.30
2023-05-24T19:28:37.724Z,7.10
2023-05-24T19:31:41.076Z,6.45
2023-05-24T19:34:43.972Z,6.60
2023-05-24T19:37:46.862Z,6.95
2023-05-24T19:40:51.107Z,12.30
2023-05-24T19:43:56.048Z,8.55
2023-05-24T19:46:59.194Z,8.45
2023-05-24T19:50:02.092Z,10.07
2023-05-24T19:53:04.927Z,7.50
2023-05-24T19:56:09.191Z,8.70
2023-05-24T19:59:12.075Z,6.32
2023-05-24T20:02:15.169Z,6.03
2023-05-24T20:05:18.391Z,5.03
2023-05-24T20:08:21.838Z,7.32
2023-05-24T20:11:26.517Z,6.05
2023-05-24T20:14:31.370Z,9.80
2023-05-24T20:17:34.689Z,6.93
2023-05-24T20:20:38.369Z,7.35
2023-05-24T20:23:41.412Z,6.97
2023-05-24T20:26:45.635Z,7.13
2023-05-24T20:29:48.463Z,5.78
2023-05-24T20:32:51.315Z,7.13
2023-05-24T20:35:54.435Z,5.82
2023-05-24T20:38:57.337Z,9.82
2023-05-24T20:42:02.230Z,7.40
2023-05-24T20:45:06.419Z,6.68
2023-05-24T20:48:09.488Z,6.65
2023-05-24T20:51:12.399Z,6.20
2023-05-24T20:54:15.518Z,6.15
2023-05-24T20:57:19.828Z,4.53
2023-05-24T21:00:22.687Z,7.78
2023-05-24T21:03:25.728Z,5.25
2023-05-24T21:06:28.838Z,4.57
2023-05-24T21:09:31.695Z,7.60
2023-05-24T21:12:35.968Z,6.13
2023-05-24T21:15:39.220Z,9.05
2023-05-24T21:18:42.175Z,5.45
2023-05-24T21:21:45.043Z,7.28
2023-05-24T21:24:47.911Z,9.00
2023-05-24T21:27:52.173Z,5.22
2023-05-24T21:30:55.062Z,6.50
2023-05-24T21:33:57.982Z,6.82
2023-05-24T21:37:01.995Z,5.28
2023-05-24T21:40:06.124Z,5.72
2023-05-24T21:43:12.308Z,9.75
2023-05-24T21:46:15.296Z,5.45
2023-05-24T21:49:18.967Z,6.03
2023-05-24T21:52:22.013Z,5.05
2023-05-24T21:55:24.917Z,6.30
2023-05-24T21:58:29.270Z,8.65
2023-05-24T22:01:32.155Z,6.20
2023-05-24T22:04:35.040Z,11.02
2023-05-24T22:07:38.047Z,6.00
2023-05-24T22:10:40.862Z,5.25
2023-05-24T22:13:45.034Z,5.18
2023-05-24T22:16:47.990Z,3.97
2023-05-24T22:19:53.045Z,7.10
2023-05-24T22:22:55.979Z,4.72
2023-05-24T22:25:58.862Z,3.50
2023-05-24T22:29:03.831Z,5.03
2023-05-24T22:32:07.108Z,7.15
2023-05-24T22:35:10.760Z,3.13
2023-05-24T22:38:13.794Z,5.97
2023-05-24T22:41:16.647Z,5.68
2023-05-24T22:44:21.335Z,5.97
2023-05-24T22:47:24.257Z,4.40
2023-05-24T22:50:27.311Z,3.78
2023-05-24T22:53:30.261Z,3.75
2023-05-24T22:56:35.335Z,3.47
2023-05-24T22:59:39.859Z,4.35
2023-05-24T23:02:42.807Z,3.72
2023-05-24T23:05:45.881Z,4.38
2023-05-24T23:08:48.956Z,4.82
2023-05-24T23:11:54.624Z,7.20
2023-05-24T23:14:59.472Z,4.03
2023-05-24T23:18:02.904Z,7.05
2023-05-24T23:21:05.937Z,3.38
2023-05-24T23:24:14.237Z,4.05
2023-05-24T23:27:17.252Z,4.57
2023-05-24T23:30:21.949Z,3.25
2023-05-24T23:33:24.841Z,3.72
2023-05-24T23:36:27.684Z,4.18
2023-05-24T23:39:30.872Z,3.70
2023-05-24T23:42:33.719Z,5.22
2023-05-24T23:45:37.925Z,3.72
2023-05-24T23:48:40.780Z,3.47
2023-05-24T23:51:43.836Z,6.07
2023-05-24T23:54:46.889Z,6.05
2023-05-24T23:57:49.829Z,3.80
